Time;durP1;ratioP1;P1;durP2;ratioP2;P2;SDS_P1;SDS_P2;PMS_P1;PMS_P2;Temp;Humidity;BMP_temperature;BMP_pressure;BME280_temperature;BME280_humidity;BME280_pressure;Samples;Min_cycle;Max_cycle;Signal;HPM_P1;HPM_P2
2023/04/11 00:00:39;;;;;;;33.50;20.60;;;;;;;6.78;71.60;100342.56;131271;1247;107531;-74
2023/04/11 00:03:51;;;;;;;29.30;18.70;;;;;;;6.72;71.61;100335.85;131334;1253;107625;-77
2023/04/11 00:06:57;;;;;;;26.10;17.20;;;;;;;6.67;71.46;100333.26;131232;1247;107334;-75
2023/04/11 00:10:03;;;;;;;25.70;17.10;;;;;;;6.62;71.43;100332.08;131337;1247;107376;-75
2023/04/11 00:13:09;;;;;;;24.70;15.70;;;;;;;6.54;71.44;100331.64;131349;1251;107531;-76
2023/04/11 00:16:15;;;;;;;25.30;14.50;;;;;;;6.49;71.36;100333.42;131194;1250;107459;-78
2023/04/11 00:19:22;;;;;;;23.60;14.10;;;;;;;6.46;71.58;100330.52;131229;1253;107262;-78
2023/04/11 00:22:29;;;;;;;23.20;14.20;;;;;;;6.44;71.40;100329.25;131299;1250;107251;-76
2023/04/11 00:25:36;;;;;;;24.00;15.00;;;;;;;6.46;71.82;100328.41;131276;1263;106141;-77
2023/04/11 00:28:41;;;;;;;24.60;15.70;;;;;;;6.46;71.56;100326.48;131125;1254;107207;-76
2023/04/11 00:31:47;;;;;;;21.70;15.40;;;;;;;6.44;71.23;100326.13;130953;1253;236166;-78
2023/04/11 00:34:52;;;;;;;25.10;15.50;;;;;;;6.44;71.73;100329.30;131183;1250;107122;-78
2023/04/11 00:38:00;;;;;;;25.10;15.70;;;;;;;6.40;71.15;100325.39;131280;1253;107628;-78
2023/04/11 00:41:06;;;;;;;22.40;15.60;;;;;;;6.34;71.29;100324.24;131385;1252;107500;-76
2023/04/11 00:44:12;;;;;;;23.60;16.60;;;;;;;6.32;71.48;100320.23;131153;1249;107518;-76
2023/04/11 00:47:19;;;;;;;28.80;16.80;;;;;;;6.28;71.11;100310.23;131111;1253;107343;-78
2023/04/11 00:50:25;;;;;;;26.10;16.10;;;;;;;6.25;71.37;100303.96;131224;1253;107524;-76
2023/04/11 00:53:32;;;;;;;25.20;15.40;;;;;;;6.19;71.12;100303.34;131326;1250;107634;-76
2023/04/11 00:56:38;;;;;;;24.20;15.80;;;;;;;6.14;71.72;100303.56;131287;1252;107679;-78
2023/04/11 00:59:47;;;;;;;29.60;16.10;;;;;;;6.10;71.23;100298.64;131264;1253;107520;-77
2023/04/11 01:02:53;;;;;;;26.70;16.00;;;;;;;6.03;71.36;100296.70;131197;1253;107479;-77
2023/04/11 01:05:59;;;;;;;24.20;15.70;;;;;;;5.98;71.16;100294.77;131409;1253;107318;-75
2023/04/11 01:09:05;;;;;;;25.90;15.90;;;;;;;5.94;71.45;100295.67;131208;1248;107542;-76
2023/04/11 01:12:12;;;;;;;21.70;13.20;;;;;;;5.88;71.26;100292.19;131108;1251;107248;-77
2023/04/11 01:15:18;;;;;;;23.10;13.90;;;;;;;5.84;71.52;100285.66;131393;1254;107464;-77
2023/04/11 01:18:24;;;;;;;21.20;13.50;;;;;;;5.82;71.37;100285.78;131442;1250;107398;-77
2023/04/11 01:21:31;;;;;;;23.90;14.60;;;;;;;5.83;71.21;100288.15;131522;1253;107355;-77
2023/04/11 01:24:36;;;;;;;23.50;14.60;;;;;;;5.88;71.31;100288.31;131276;1249;107529;-77
2023/04/11 01:27:43;;;;;;;24.50;14.50;;;;;;;5.87;71.35;100288.42;131344;1253;107477;-76
2023/04/11 01:30:49;;;;;;;23.60;14.00;;;;;;;5.86;71.55;100285.27;131269;1253;108810;-77
2023/04/11 01:33:55;;;;;;;22.30;14.40;;;;;;;5.87;71.53;100284.55;131388;1253;107602;-77
2023/04/11 01:37:02;;;;;;;21.10;14.50;;;;;;;5.83;71.24;100280.80;131099;1253;105622;-76
2023/04/11 01:40:10;;;;;;;21.60;14.00;;;;;;;5.77;71.43;100278.45;131266;1252;107548;-77
2023/04/11 01:43:17;;;;;;;20.40;13.40;;;;;;;5.73;71.72;100275.78;131263;1251;108570;-77
2023/04/11 01:46:23;;;;;;;20.00;13.10;;;;;;;5.66;71.23;100273.84;131391;1251;107505;-77
2023/04/11 01:49:29;;;;;;;20.50;14.60;;;;;;;5.56;71.22;100271.79;131383;1253;106128;-77
2023/04/11 01:52:34;;;;;;;21.10;13.90;;;;;;;5.51;71.36;100274.82;131146;1253;107398;-76
2023/04/11 01:55:41;;;;;;;21.00;14.00;;;;;;;5.46;71.42;100269.54;131262;1252;107549;-77
2023/04/11 01:58:47;;;;;;;17.60;12.60;;;;;;;5.42;71.59;100267.72;131076;1253;107517;-77
2023/04/11 02:01:53;;;;;;;19.00;13.40;;;;;;;5.40;71.34;100266.52;131010;1250;108336;-78
2023/04/11 02:04:58;;;;;;;19.70;13.50;;;;;;;5.35;71.47;100264.61;131425;1251;107536;-75
2023/04/11 02:08:04;;;;;;;18.80;13.20;;;;;;;5.29;71.41;100256.95;131499;1253;107359;-75
2023/04/11 02:11:09;;;;;;;18.00;11.90;;;;;;;5.24;71.38;100250.44;131472;1253;107577;-76
2023/04/11 02:14:15;;;;;;;17.90;11.70;;;;;;;5.22;71.48;100251.16;131297;1253;107274;-75
2023/04/11 02:17:21;;;;;;;17.90;11.30;;;;;;;5.24;71.57;100252.44;131315;1253;108706;-78
2023/04/11 02:20:26;;;;;;;19.80;11.80;;;;;;;5.26;71.36;100246.47;131192;1253;107426;-77
2023/04/11 02:23:32;;;;;;;18.40;12.80;;;;;;;5.28;71.59;100244.15;131235;1253;107448;-78
2023/04/11 02:26:38;;;;;;;18.90;12.30;;;;;;;5.29;71.36;100237.58;131555;1253;107389;-78
2023/04/11 02:29:43;;;;;;;21.10;12.30;;;;;;;5.29;71.57;100239.80;131430;1251;107514;-80
2023/04/11 02:32:49;;;;;;;22.20;12.80;;;;;;;5.26;71.30;100231.25;131766;1250;107231;-81
2023/04/11 02:35:54;;;;;;;19.80;13.00;;;;;;;5.23;71.36;100226.21;131623;1253;107498;-77
2023/04/11 02:39:00;;;;;;;20.80;13.40;;;;;;;5.19;71.58;100220.85;131187;1253;106530;-76
2023/04/11 02:42:06;;;;;;;20.10;13.10;;;;;;;5.17;71.59;100214.72;131246;1257;107569;-75
2023/04/11 02:45:12;;;;;;;21.50;13.60;;;;;;;5.16;71.56;100210.02;131182;1253;108669;-75
2023/04/11 02:48:17;;;;;;;20.90;13.10;;;;;;;5.14;71.60;100206.08;131303;1253;107516;-74
2023/04/11 02:51:24;;;;;;;20.00;13.50;;;;;;;5.10;71.56;100203.54;131417;1247;106467;-75
2023/04/11 02:54:30;;;;;;;19.60;12.90;;;;;;;5.07;71.75;100199.23;131306;1247;107383;-75
2023/04/11 02:57:38;;;;;;;17.50;13.00;;;;;;;5.03;71.78;100195.98;131680;1253;107519;-75
2023/04/11 03:00:47;;;;;;;21.40;12.80;;;;;;;4.99;71.89;100191.92;131106;1247;107528;-76
2023/04/11 03:03:52;;;;;;;19.20;12.30;;;;;;;4.94;71.83;100193.33;131217;1248;107607;-76
2023/04/11 03:06:59;;;;;;;18.90;11.80;;;;;;;4.93;72.00;100192.56;131202;1253;107475;-76
2023/04/11 03:10:07;;;;;;;17.20;11.00;;;;;;;4.94;72.21;100186.16;131248;1253;107511;-75
2023/04/11 03:13:12;;;;;;;22.90;12.70;;;;;;;4.94;72.08;100178.35;131212;1253;107562;-75
2023/04/11 03:16:18;;;;;;;22.40;12.90;;;;;;;4.95;71.98;100178.50;131337;1253;107529;-73
2023/04/11 03:19:24;;;;;;;18.20;11.90;;;;;;;4.96;72.04;100177.84;131386;1253;107517;-76
2023/04/11 03:22:30;;;;;;;19.80;12.80;;;;;;;4.98;72.13;100178.57;131249;1253;107646;-74
2023/04/11 03:25:37;;;;;;;22.60;13.40;;;;;;;4.97;72.07;100178.29;131345;1250;107348;-73
2023/04/11 03:28:44;;;;;;;20.90;12.20;;;;;;;4.96;72.04;100178.20;131379;1253;107436;-74
2023/04/11 03:31:50;;;;;;;19.50;12.50;;;;;;;4.94;71.96;100176.83;131304;1253;107383;-75
2023/04/11 03:34:55;;;;;;;20.00;13.00;;;;;;;4.91;71.96;100174.58;131184;1253;106662;-74
2023/04/11 03:38:01;;;;;;;18.10;12.50;;;;;;;4.86;71.95;100170.14;131242;1253;107481;-77
2023/04/11 03:41:07;;;;;;;19.00;12.00;;;;;;;4.83;72.08;100166.53;131332;1248;107563;-73
2023/04/11 03:44:13;;;;;;;20.00;12.50;;;;;;;4.80;71.98;100165.86;131275;1248;107504;-75
2023/04/11 03:47:19;;;;;;;16.90;11.50;;;;;;;4.80;72.15;100169.63;131243;1247;107501;-74
2023/04/11 03:50:24;;;;;;;17.80;12.00;;;;;;;4.76;72.23;100172.18;131181;1253;107217;-75
2023/04/11 03:53:35;;;;;;;18.80;11.70;;;;;;;4.73;72.60;100174.52;131198;1252;108639;-74
2023/04/11 03:56:46;;;;;;;19.50;11.10;;;;;;;4.74;72.60;100171.65;131662;1253;107458;-74
2023/04/11 03:59:58;;;;;;;15.70;10.50;;;;;;;4.79;72.75;100169.65;131193;1253;107519;-76
2023/04/11 04:03:03;;;;;;;18.90;12.00;;;;;;;4.85;72.86;100166.85;131355;1253;106463;-75
2023/04/11 04:06:10;;;;;;;16.60;11.10;;;;;;;4.89;72.92;100168.49;131150;1253;107434;-75
2023/04/11 04:09:16;;;;;;;17.70;11.30;;;;;;;4.94;73.21;100165.65;131205;1253;107548;-75
2023/04/11 04:12:33;;;;;;;16.20;11.30;;;;;;;4.97;73.00;100161.74;131151;1252;107484;-74
2023/04/11 04:15:50;;;;;;;18.70;11.50;;;;;;;4.99;72.82;100162.27;131163;1253;107360;-75
2023/04/11 04:18:57;;;;;;;16.40;10.70;;;;;;;5.02;72.94;100158.05;131262;1253;107480;-75
2023/04/11 04:22:03;;;;;;;23.40;13.80;;;;;;;5.04;72.72;100154.85;131160;1248;107447;-75
2023/04/11 04:25:14;;;;;;;16.50;11.40;;;;;;;5.06;72.98;100149.54;131239;1252;107446;-75
2023/04/11 04:28:21;;;;;;;24.10;14.80;;;;;;;5.13;72.88;100146.44;131244;1252;107496;-74
2023/04/11 04:31:28;;;;;;;21.80;12.20;;;;;;;5.22;73.09;100148.35;131254;1251;107341;-75
2023/04/11 04:34:45;;;;;;;16.80;11.10;;;;;;;5.38;73.47;100150.45;131358;1251;107522;-75
2023/04/11 04:37:50;;;;;;;;;;;;;;;5.53;73.63;100147.11;131311;1254;107535;-76
2023/04/11 04:41:16;;;;;;;19.90;11.90;;;;;;;5.74;74.08;100143.14;131274;1253;107544;-75
2023/04/11 04:44:27;;;;;;;17.10;10.90;;;;;;;5.95;74.40;100136.09;131240;1253;107472;-75
2023/04/11 04:47:37;;;;;;;20.10;13.00;;;;;;;6.20;74.47;100131.60;131190;1253;107419;-75
2023/04/11 04:50:44;;;;;;;26.70;16.60;;;;;;;6.44;74.43;100125.16;131156;1251;107513;-76
2023/04/11 04:53:50;;;;;;;28.50;16.10;;;;;;;6.67;74.86;100118.48;131164;1253;107594;-74
2023/04/11 04:56:55;;;;;;;30.10;19.60;;;;;;;6.88;74.83;100116.67;131059;1251;107643;-74
2023/04/11 05:00:05;;;;;;;27.10;18.50;;;;;;;7.09;75.12;100108.98;131330;1252;107360;-74
2023/04/11 05:03:15;;;;;;;48.80;33.70;;;;;;;7.29;75.69;100105.48;131261;1253;106469;-75
2023/04/11 05:06:21;;;;;;;38.60;24.70;;;;;;;7.46;76.14;100098.30;131083;1253;107425;-75
2023/04/11 05:09:27;;;;;;;31.70;22.20;;;;;;;7.64;76.39;100088.52;131257;1248;107395;-74
2023/04/11 05:12:39;;;;;;;31.70;22.60;;;;;;;7.86;76.76;100085.55;131332;1253;107380;-75
2023/04/11 05:15:50;;;;;;;24.30;17.50;;;;;;;8.08;76.93;100081.41;131181;1253;108556;-75
2023/04/11 05:18:56;;;;;;;23.60;17.00;;;;;;;8.29;77.14;100078.23;131196;1253;107519;-75
2023/04/11 05:22:02;;;;;;;25.20;19.50;;;;;;;8.49;77.34;100070.17;131451;1253;107559;-75
2023/04/11 05:25:10;;;;;;;25.30;18.50;;;;;;;8.63;77.43;100064.41;131277;1254;107483;-75
2023/04/11 05:28:16;;;;;;;21.20;15.00;;;;;;;8.72;77.58;100058.84;131301;1248;107562;-75
2023/04/11 05:31:24;;;;;;;20.40;13.80;;;;;;;8.79;77.73;100058.86;131162;1253;107487;-75
2023/04/11 05:34:33;;;;;;;22.10;16.00;;;;;;;8.86;77.65;100051.23;131164;1253;107519;-75
2023/04/11 05:37:40;;;;;;;18.30;14.50;;;;;;;8.96;77.62;100048.88;131244;1251;107615;-75
2023/04/11 05:40:46;;;;;;;19.70;15.00;;;;;;;9.08;77.99;100045.77;131203;1253;107441;-75
2023/04/11 05:43:51;;;;;;;20.00;15.50;;;;;;;9.19;78.19;100043.11;131280;1251;107273;-78
2023/04/11 05:46:58;;;;;;;17.60;13.80;;;;;;;9.26;77.86;100041.73;131369;1253;107386;-75
2023/04/11 05:50:03;;;;;;;19.70;14.40;;;;;;;9.34;78.04;100038.67;131318;1253;105584;-74
2023/04/11 05:53:09;;;;;;;15.10;11.20;;;;;;;9.41;77.90;100038.83;131254;1256;107529;-74
2023/04/11 05:56:14;;;;;;;18.70;13.40;;;;;;;9.48;77.97;100034.79;131161;1253;107531;-74
2023/04/11 05:59:22;;;;;;;16.20;12.50;;;;;;;9.59;78.21;100026.71;131408;1253;107571;-73
2023/04/11 06:02:27;;;;;;;17.30;12.40;;;;;;;9.72;78.33;100027.43;131162;1251;107224;-74
2023/04/11 06:05:33;;;;;;;19.60;15.20;;;;;;;9.83;77.92;100023.13;131218;1253;107500;-75
2023/04/11 06:08:39;;;;;;;24.70;17.20;;;;;;;9.92;77.77;100018.67;131303;1253;107241;-73
2023/04/11 06:11:45;;;;;;;23.40;16.70;;;;;;;10.00;77.94;100009.90;131434;1253;105803;-74
2023/04/11 06:14:50;;;;;;;18.30;13.60;;;;;;;10.09;77.58;100006.66;131207;1250;107539;-74
2023/04/11 06:17:56;;;;;;;20.60;14.50;;;;;;;10.16;77.75;100004.11;131412;1253;107390;-74
2023/04/11 06:21:01;;;;;;;17.10;13.50;;;;;;;10.26;77.94;100004.04;131465;1253;105394;-74
2023/04/11 06:24:10;;;;;;;25.70;18.10;;;;;;;10.38;77.84;100003.95;131169;1252;106159;-73
2023/04/11 06:27:15;;;;;;;23.70;18.10;;;;;;;10.50;77.85;100001.60;131229;1253;108617;-74
2023/04/11 06:30:21;;;;;;;20.80;15.60;;;;;;;10.61;77.80;100002.20;131262;1253;107528;-74
2023/04/11 06:33:27;;;;;;;22.40;17.00;;;;;;;10.69;77.58;100001.20;131458;1253;107485;-77
2023/04/11 06:36:33;;;;;;;19.70;15.70;;;;;;;10.76;77.38;99997.52;131418;1253;107391;-74
2023/04/11 06:39:38;;;;;;;17.20;14.00;;;;;;;10.83;77.44;99998.19;131331;1253;107560;-74
2023/04/11 06:42:44;;;;;;;17.70;12.90;;;;;;;10.89;77.39;99994.67;131365;1254;107347;-76
2023/04/11 06:45:50;;;;;;;12.20;9.30;;;;;;;10.94;77.19;99988.29;131370;1253;107554;-74
2023/04/11 06:48:56;;;;;;;13.70;9.90;;;;;;;11.01;77.13;99985.56;131333;1248;107254;-74
2023/04/11 06:52:02;;;;;;;13.00;10.60;;;;;;;11.11;77.35;99984.06;131267;1253;107626;-75
2023/04/11 06:55:13;;;;;;;14.10;11.60;;;;;;;11.23;77.38;99983.47;131227;1253;107434;-73
2023/04/11 06:58:18;;;;;;;14.80;12.40;;;;;;;11.31;76.85;99978.85;131461;1252;107231;-74
2023/04/11 07:01:29;;;;;;;13.00;10.20;;;;;;;11.36;76.85;99980.56;131399;1253;106776;-74
2023/04/11 07:04:34;;;;;;;15.10;10.50;;;;;;;11.43;76.75;99981.54;131515;1253;106739;-74
2023/04/11 07:07:40;;;;;;;13.80;11.20;;;;;;;11.48;76.59;99976.38;131236;1253;107452;-74
2023/04/11 07:10:45;;;;;;;14.80;11.70;;;;;;;11.55;76.50;99973.46;131408;1260;107510;-74
2023/04/11 07:13:51;;;;;;;14.20;10.10;;;;;;;11.63;76.44;99976.12;131307;1253;107500;-75
2023/04/11 07:16:56;;;;;;;12.50;9.30;;;;;;;11.73;76.56;99966.98;131450;1257;108129;-75
2023/04/11 07:20:05;;;;;;;11.70;9.30;;;;;;;11.88;76.61;99963.25;131469;1253;106589;-74
2023/04/11 07:23:10;;;;;;;11.00;9.20;;;;;;;12.06;76.31;99960.40;131465;1247;106616;-74
2023/04/11 07:26:16;;;;;;;11.90;8.50;;;;;;;12.20;75.70;99958.70;131452;1253;107536;-73
2023/04/11 07:29:22;;;;;;;11.60;10.10;;;;;;;12.29;75.23;99957.83;131356;1253;106979;-74
2023/04/11 07:32:27;;;;;;;8.90;8.00;;;;;;;12.37;74.99;99954.13;131351;1253;107302;-74
2023/04/11 07:35:34;;;;;;;10.40;7.90;;;;;;;12.42;74.61;99945.00;131428;1253;107508;-74
2023/04/11 07:38:40;;;;;;;8.40;7.00;;;;;;;12.45;74.61;99944.08;131427;1248;107535;-73
2023/04/11 07:41:45;;;;;;;8.70;7.10;;;;;;;12.49;74.92;99936.84;131342;1254;107350;-75
2023/04/11 07:44:50;;;;;;;10.50;7.50;;;;;;;12.52;74.66;99934.35;131356;1254;107482;-74
2023/04/11 07:47:56;;;;;;;9.00;7.20;;;;;;;12.55;74.47;99926.61;131230;1251;107997;-74
2023/04/11 07:51:01;;;;;;;6.90;5.70;;;;;;;12.60;74.50;99922.23;131318;1254;107533;-73
2023/04/11 07:54:08;;;;;;;7.10;4.90;;;;;;;12.66;73.78;99917.61;131412;1248;107520;-74
2023/04/11 07:57:13;;;;;;;5.20;4.40;;;;;;;12.68;72.95;99909.63;131307;1252;107221;-74
2023/04/11 08:00:23;;;;;;;4.80;3.70;;;;;;;12.71;73.06;99898.73;131341;1251;105705;-73
2023/04/11 08:03:28;;;;;;;4.40;3.60;;;;;;;12.79;72.92;99892.42;131378;1260;107366;-74
2023/04/11 08:06:34;;;;;;;3.50;3.10;;;;;;;12.89;72.79;99884.63;131518;1254;108412;-73
2023/04/11 08:09:41;;;;;;;4.00;3.30;;;;;;;12.98;71.46;99883.97;131428;1254;107389;-74
2023/04/11 08:12:46;;;;;;;4.20;3.10;;;;;;;13.04;71.79;99880.08;131494;1255;107215;-74
2023/04/11 08:15:52;;;;;;;4.50;3.80;;;;;;;13.15;71.59;99881.17;131430;1254;107204;-73
2023/04/11 08:18:57;;;;;;;5.00;3.70;;;;;;;13.24;71.18;99877.92;131470;1253;107511;-74
2023/04/11 08:22:03;;;;;;;3.50;3.10;;;;;;;13.33;70.54;99876.87;131710;1253;107376;-74
2023/04/11 08:25:10;;;;;;;4.40;2.90;;;;;;;13.41;70.88;99880.43;131449;1253;107574;-74
2023/04/11 08:28:16;;;;;;;4.70;3.00;;;;;;;13.50;70.36;99878.70;131295;1252;106675;-74
2023/04/11 08:31:21;;;;;;;3.40;3.10;;;;;;;13.59;69.33;99867.77;131432;1253;106536;-74
2023/04/11 08:34:27;;;;;;;4.70;2.80;;;;;;;13.73;69.52;99866.66;131577;1253;108076;-73
2023/04/11 08:37:32;;;;;;;3.70;3.20;;;;;;;13.89;70.09;99850.42;131380;1253;107645;-74
2023/04/11 08:40:38;;;;;;;4.00;2.90;;;;;;;14.10;69.48;99835.45;131364;1254;107272;-73
2023/04/11 08:43:45;;;;;;;2.90;2.60;;;;;;;14.27;68.79;99828.90;131445;1252;107514;-73
2023/04/11 08:46:51;;;;;;;4.40;3.20;;;;;;;14.41;67.70;99818.64;131364;1253;108085;-73
2023/04/11 08:49:57;;;;;;;4.30;3.40;;;;;;;14.53;68.04;99811.00;131505;1253;107245;-75
2023/04/11 08:53:03;;;;;;;3.80;3.20;;;;;;;14.65;67.23;99805.11;131396;1261;107526;-76
2023/04/11 08:56:16;;;;;;;3.10;2.70;;;;;;;14.73;67.08;99799.61;131534;1253;107597;-76
2023/04/11 08:59:21;;;;;;;3.80;3.00;;;;;;;14.84;66.16;99802.77;131368;1254;106528;-75
2023/04/11 09:02:27;;;;;;;3.90;3.20;;;;;;;14.90;66.82;99794.61;131487;1252;107595;-75
2023/04/11 09:05:34;;;;;;;3.30;2.70;;;;;;;15.00;66.68;99793.05;131559;1260;107679;-75
2023/04/11 09:08:40;;;;;;;3.20;2.80;;;;;;;15.08;66.23;99781.84;131266;1254;107516;-75
2023/04/11 09:11:54;;;;;;;3.80;2.90;;;;;;;15.17;65.87;99774.23;131354;1252;108460;-75
2023/04/11 09:15:16;;;;;;;3.60;2.90;;;;;;;15.28;66.08;99766.23;131363;1253;107675;-73
2023/04/11 09:18:35;;;;;;;3.00;2.70;;;;;;;15.39;66.12;99756.35;131506;1253;107411;-74
2023/04/11 09:21:50;;;;;;;3.70;2.80;;;;;;;15.54;65.92;99757.34;131484;1253;105620;-74
2023/04/11 09:25:04;;;;;;;3.70;2.90;;;;;;;15.67;65.15;99752.16;131454;1261;108627;-75
2023/04/11 09:28:11;;;;;;;3.20;2.70;;;;;;;15.81;64.97;99751.02;131388;1254;107519;-75
2023/04/11 09:31:16;;;;;;;3.50;2.90;;;;;;;15.89;65.08;99750.98;131392;1253;107573;-74
2023/04/11 09:34:26;;;;;;;3.60;2.50;;;;;;;15.96;63.43;99744.02;131421;1253;107370;-74
2023/04/11 09:37:44;;;;;;;3.70;3.10;;;;;;;16.01;64.00;99738.94;131455;1260;107260;-74
2023/04/11 09:40:49;;;;;;;3.50;3.00;;;;;;;16.12;64.28;99736.20;131494;1254;107557;-75
2023/04/11 09:43:55;;;;;;;4.00;3.20;;;;;;;16.23;63.69;99731.80;131365;1253;107553;-75
2023/04/11 09:47:01;;;;;;;3.40;2.70;;;;;;;16.27;63.11;99732.92;131319;1249;107189;-75
2023/04/11 09:50:08;;;;;;;3.50;3.20;;;;;;;16.28;62.74;99736.17;131320;1261;107563;-74
2023/04/11 09:53:15;;;;;;;5.60;3.40;;;;;;;16.32;62.90;99725.66;131294;1254;107405;-74
2023/04/11 09:56:22;;;;;;;4.30;3.00;;;;;;;16.41;63.17;99725.02;131179;1254;107615;-74
2023/04/11 09:59:30;;;;;;;6.20;3.50;;;;;;;16.46;63.28;99723.79;131241;1254;107247;-74
2023/04/11 10:02:35;;;;;;;4.00;3.60;;;;;;;16.49;62.35;99718.00;131328;1253;107512;-74
2023/04/11 10:05:41;;;;;;;5.20;3.20;;;;;;;16.50;62.48;99711.27;131516;1258;107340;-74
2023/04/11 10:08:47;;;;;;;3.20;2.80;;;;;;;16.62;62.36;99703.38;131488;1252;105870;-74
2023/04/11 10:11:52;;;;;;;5.10;3.90;;;;;;;16.76;62.17;99695.19;131388;1252;107561;-73
2023/04/11 10:15:05;;;;;;;5.30;3.90;;;;;;;16.93;61.90;99692.27;131422;1253;106009;-74
2023/04/11 10:18:12;;;;;;;8.50;5.80;;;;;;;16.90;61.04;99695.90;131544;1254;107227;-74
2023/04/11 10:21:41;;;;;;;11.40;7.80;;;;;;;16.87;61.03;99695.75;131501;1260;107543;-74
2023/04/11 10:25:17;;;;;;;6.30;5.30;;;;;;;16.78;60.22;99691.27;131399;1257;107239;-74
2023/04/11 10:28:33;;;;;;;8.80;6.30;;;;;;;16.74;60.12;99685.51;131482;1253;109361;-73
2023/04/11 10:32:09;;;;;;;4.80;4.30;;;;;;;16.75;59.94;99682.08;131412;1251;108695;-75
2023/04/11 10:35:32;;;;;;;6.50;5.90;;;;;;;16.82;60.15;99676.83;131459;1252;107446;-75
2023/04/11 10:38:48;;;;;;;;;;;;;;;16.80;59.30;99671.47;131414;1254;107218;-75
2023/04/11 10:41:54;;;;;;;3.30;2.70;;;;;;;16.77;59.55;99663.14;131455;1254;107251;-74
2023/04/11 10:45:22;;;;;;;4.00;3.20;;;;;;;16.76;59.70;99662.38;131400;1254;105679;-74
2023/04/11 10:48:28;;;;;;;3.80;3.30;;;;;;;16.81;59.36;99662.73;131404;1253;107318;-74
2023/04/11 10:51:34;;;;;;;4.20;3.60;;;;;;;16.79;59.08;99657.42;131326;1253;107231;-74
2023/04/11 10:54:40;;;;;;;3.30;2.90;;;;;;;16.81;59.09;99653.78;131258;1252;107546;-75
2023/04/11 10:58:06;;;;;;;2.90;2.60;;;;;;;16.94;58.94;99651.00;131176;1247;107254;-75
2023/04/11 11:01:20;;;;;;;5.20;4.50;;;;;;;17.04;57.94;99650.82;131260;1262;108708;-75
2023/04/11 11:04:34;;;;;;;5.40;4.90;;;;;;;17.10;58.36;99647.74;131255;1253;107949;-75
2023/04/11 11:07:45;;;;;;;3.30;2.80;;;;;;;17.17;57.79;99642.17;131208;1254;107361;-74
2023/04/11 11:10:50;;;;;;;6.20;5.20;;;;;;;17.20;57.68;99634.83;131319;1253;106560;-75
2023/04/11 11:13:56;;;;;;;5.80;4.00;;;;;;;17.17;57.09;99637.61;131293;1254;108374;-75
2023/04/11 11:17:02;;;;;;;4.90;3.10;;;;;;;17.12;56.64;99629.29;131368;1254;107558;-74
2023/04/11 11:20:18;;;;;;;5.70;2.30;;;;;;;17.18;57.27;99628.11;131460;1253;107527;-74
2023/04/11 11:23:24;;;;;;;5.70;3.90;;;;;;;17.29;56.73;99624.34;131372;1254;107316;-74
2023/04/11 11:26:41;;;;;;;3.80;3.00;;;;;;;17.37;55.94;99625.47;131212;1254;106658;-74
2023/04/11 11:29:46;;;;;;;3.40;2.80;;;;;;;17.39;56.53;99617.71;131369;1257;106267;-74
2023/04/11 11:32:52;;;;;;;3.20;2.90;;;;;;;17.38;55.96;99616.01;131253;1254;107227;-74
2023/04/11 11:36:00;;;;;;;4.30;3.90;;;;;;;17.38;55.63;99611.82;131300;1251;107549;-74
2023/04/11 11:39:06;;;;;;;3.00;2.70;;;;;;;17.41;55.06;99607.63;131216;1254;107472;-74
2023/04/11 11:42:12;;;;;;;2.70;2.40;;;;;;;17.42;54.19;99600.27;131318;1261;107468;-74
2023/04/11 11:45:19;;;;;;;7.70;5.70;;;;;;;17.47;55.10;99601.91;131303;1253;106784;-74
2023/04/11 11:48:25;;;;;;;4.30;3.90;;;;;;;17.51;54.72;99599.04;131350;1254;107475;-74
2023/04/11 11:51:43;;;;;;;4.00;3.60;;;;;;;17.51;55.07;99599.48;131379;1261;107341;-75
2023/04/11 11:54:48;;;;;;;5.10;3.80;;;;;;;17.54;54.93;99597.02;131575;1254;108730;-74
2023/04/11 11:57:54;;;;;;;3.80;3.40;;;;;;;17.57;53.65;99597.96;131521;1253;107523;-74
2023/04/11 12:01:00;;;;;;;4.00;3.20;;;;;;;17.57;52.55;99592.79;131346;1253;107841;-75
2023/04/11 12:04:10;;;;;;;3.20;2.90;;;;;;;17.58;53.04;99586.13;131488;1247;108457;-75
2023/04/11 12:07:20;;;;;;;3.10;2.80;;;;;;;17.63;53.28;99588.56;131260;1248;107256;-75
2023/04/11 12:10:27;;;;;;;3.80;3.10;;;;;;;17.65;53.11;99587.34;131398;1253;106892;-75
2023/04/11 12:13:33;;;;;;;3.20;2.80;;;;;;;17.67;52.59;99585.02;131553;1248;107387;-75
2023/04/11 12:16:39;;;;;;;3.00;2.70;;;;;;;17.74;52.72;99577.41;131412;1253;107441;-74
2023/04/11 12:19:45;;;;;;;3.00;2.70;;;;;;;17.82;51.58;99576.66;131395;1254;105655;-75
2023/04/11 12:22:50;;;;;;;3.00;2.70;;;;;;;17.92;52.14;99566.79;131270;1254;107560;-75
2023/04/11 12:25:56;;;;;;;3.20;2.90;;;;;;;18.00;52.18;99563.36;131433;1253;107461;-76
2023/04/11 12:29:02;;;;;;;3.50;2.80;;;;;;;18.04;51.05;99559.39;131450;1248;107713;-75
2023/04/11 12:32:07;;;;;;;3.20;2.90;;;;;;;18.07;50.48;99553.42;131310;1251;138886;-75
2023/04/11 12:35:13;;;;;;;5.10;2.90;;;;;;;18.09;50.75;99547.02;131506;1254;107252;-75
2023/04/11 12:38:19;;;;;;;3.80;2.60;;;;;;;18.11;50.94;99543.55;131435;1248;106865;-75
2023/04/11 12:41:25;;;;;;;3.20;2.80;;;;;;;18.15;50.80;99541.31;131429;1251;107353;-75
2023/04/11 12:44:30;;;;;;;3.00;2.70;;;;;;;18.15;50.34;99539.52;131427;1254;106721;-74
2023/04/11 12:47:36;;;;;;;3.20;2.90;;;;;;;18.08;49.92;99532.61;131306;1253;108728;-75
2023/04/11 12:50:42;;;;;;;3.70;3.20;;;;;;;18.02;50.00;99531.04;131612;1252;107589;-78
2023/04/11 12:53:51;;;;;;;4.30;3.90;;;;;;;18.02;49.52;99524.94;131097;1251;107528;-74
2023/04/11 12:56:57;;;;;;;8.40;7.30;;;;;;;18.01;49.18;99523.36;131193;1254;105988;-75
2023/04/11 13:00:11;;;;;;;7.70;6.50;;;;;;;18.02;49.74;99514.19;131267;1250;107449;-74
2023/04/11 13:03:16;;;;;;;5.60;4.70;;;;;;;18.06;49.67;99509.41;131433;1251;107500;-74
2023/04/11 13:06:23;;;;;;;14.40;11.20;;;;;;;18.08;49.95;99500.38;131546;1254;107317;-74
2023/04/11 13:09:30;;;;;;;5.30;4.80;;;;;;;18.07;49.78;99503.63;131334;1254;107383;-74
2023/04/11 13:12:40;;;;;;;5.10;4.60;;;;;;;18.03;48.79;99505.32;131250;1253;109359;-74
2023/04/11 13:15:46;;;;;;;5.40;4.90;;;;;;;17.97;48.69;99500.34;131321;1247;109320;-74
2023/04/11 13:18:51;;;;;;;5.00;4.60;;;;;;;17.97;48.88;99495.48;131240;1260;106727;-74
2023/04/11 13:21:57;;;;;;;5.40;4.90;;;;;;;17.97;48.57;99493.98;131453;1254;107523;-74
2023/04/11 13:25:02;;;;;;;4.40;4.00;;;;;;;18.01;48.89;99492.92;131481;1254;107533;-75
2023/04/11 13:28:08;;;;;;;5.20;4.50;;;;;;;18.13;49.11;99484.85;131223;1253;107526;-74
2023/04/11 13:31:13;;;;;;;5.40;4.50;;;;;;;18.26;48.72;99488.75;131299;1248;106297;-74
2023/04/11 13:34:19;;;;;;;6.30;5.50;;;;;;;18.39;48.64;99486.17;131322;1254;107569;-74
2023/04/11 13:37:25;;;;;;;6.40;5.80;;;;;;;18.53;47.46;99480.21;131485;1254;107521;-75
2023/04/11 13:40:30;;;;;;;7.30;6.60;;;;;;;18.63;47.89;99472.20;131473;1249;107667;-74
2023/04/11 13:43:35;;;;;;;5.90;5.20;;;;;;;18.78;47.70;99473.30;131347;1253;107548;-74
2023/04/11 13:46:41;;;;;;;6.90;6.20;;;;;;;18.89;47.35;99471.48;131492;1252;107542;-74
2023/04/11 13:49:46;;;;;;;13.60;12.20;;;;;;;18.94;47.67;99465.60;131454;1249;107382;-74
2023/04/11 13:52:51;;;;;;;10.70;9.30;;;;;;;18.98;46.59;99467.35;131468;1254;107633;-76
2023/04/11 13:55:57;;;;;;;11.60;9.60;;;;;;;18.86;46.82;99467.65;131347;1253;107215;-75
2023/04/11 13:59:03;;;;;;;9.60;8.00;;;;;;;18.80;47.00;99463.92;131326;1247;107527;-75
2023/04/11 14:02:08;;;;;;;7.40;6.60;;;;;;;18.68;46.45;99458.57;131179;1253;107368;-76
2023/04/11 14:05:13;;;;;;;6.20;5.50;;;;;;;18.53;47.18;99456.03;131298;1254;107617;-75
2023/04/11 14:08:19;;;;;;;7.20;6.50;;;;;;;18.37;46.80;99450.13;131309;1247;107545;-75
2023/04/11 14:11:24;;;;;;;6.60;5.90;;;;;;;18.07;46.85;99445.56;131276;1254;107421;-75